Time;durP1;ratioP1;P1;durP2;ratioP2;P2;SDS_P1;SDS_P2;PMS_P1;PMS_P2;Temp;Humidity;BMP_temperature;BMP_pressure;BME280_temperature;BME280_humidity;BME280_pressure;Samples;Min_cycle;Max_cycle;Signal;HPM_P1;HPM_P2
2022/02/10 00:04:16;;;;;;;39.70;18.88;;;;;;;7.21;100.00;102174.28;4951659;28;20082;-68
2022/02/10 00:18:32;;;;;;;48.00;19.88;;;;;;;7.21;100.00;102177.81;4967610;28;20074;-69
2022/02/10 00:21:04;;;;;;;39.65;19.17;;;;;;;7.23;100.00;102175.16;4971307;28;20466;-69
2022/02/10 00:24:08;;;;;;;47.75;21.65;;;;;;;7.15;100.00;102169.84;4968723;28;20055;-68
2022/02/10 00:35:18;;;;;;;41.70;20.25;;;;;;;7.10;100.00;102143.28;4968667;28;20683;-69
2022/02/10 00:37:57;;;;;;;49.35;22.17;;;;;;;7.10;100.00;102142.41;4972599;28;20582;-67
2022/02/10 00:40:34;;;;;;;51.50;21.50;;;;;;;7.10;100.00;102153.03;4969018;28;20070;-70
2022/02/10 00:43:08;;;;;;;52.70;23.70;;;;;;;7.05;100.00;102131.75;4985704;28;20511;-70
2022/02/10 00:45:41;;;;;;;47.30;22.85;;;;;;;7.08;100.00;102137.09;5016466;28;20053;-70
2022/02/10 00:48:11;;;;;;;54.15;23.17;;;;;;;7.08;100.00;102136.19;5022041;28;20140;-70
2022/02/10 00:50:44;;;;;;;47.90;22.33;;;;;;;7.08;100.00;102131.78;5019123;28;20064;-70
2022/02/10 00:53:19;;;;;;;53.58;23.40;;;;;;;7.04;100.00;102131.75;5017326;28;20101;-68
2022/02/10 00:55:52;;;;;;;50.95;23.35;;;;;;;7.07;100.00;102137.06;5021477;28;20049;-67
2022/02/10 00:58:26;;;;;;;53.88;23.77;;;;;;;7.08;100.00;102131.78;5017864;28;20476;-68
2022/02/10 01:12:29;;;;;;;43.80;19.75;;;;;;;7.01;100.00;102098.09;5016173;28;20052;-73
2022/02/10 01:31:34;;;;;;;52.67;21.70;;;;;;;6.92;100.00;102077.75;5015948;28;20550;-69
2022/02/10 01:34:07;;;;;;;55.92;20.08;;;;;;;6.91;100.00;102069.78;5014044;28;20533;-68
2022/02/10 01:36:38;;;;;;;53.65;22.00;;;;;;;6.87;100.00;102073.31;5017975;28;20049;-68
2022/02/10 01:39:12;;;;;;;54.85;21.70;;;;;;;6.85;100.00;102072.44;5032672;28;20049;-68
2022/02/10 02:04:31;;;;;;;58.53;23.17;;;;;;;6.73;100.00;102034.34;5017910;28;20143;-73
2022/02/10 02:07:01;;;;;;;52.03;22.05;;;;;;;6.73;100.00;102038.78;5016911;28;20430;-74
2022/02/10 02:09:29;;;;;;;51.03;20.67;;;;;;;6.73;100.00;102037.00;5015331;28;20064;-73
2022/02/10 02:11:57;;;;;;;54.22;21.00;;;;;;;6.75;100.00;102023.75;5016220;28;20099;-73
2022/02/10 02:14:27;;;;;;;55.25;22.35;;;;;;;6.72;100.00;102029.97;5017084;28;20053;-73
2022/02/10 02:16:59;;;;;;;56.60;23.75;;;;;;;6.73;100.00;102030.84;5016230;28;20073;-73
2022/02/10 02:19:27;;;;;;;52.85;21.00;;;;;;;6.70;100.00;102025.50;5017674;28;20077;-73
2022/02/10 02:21:59;;;;;;;50.40;21.60;;;;;;;6.75;100.00;102020.22;5016122;28;20373;-73
2022/02/10 02:24:27;;;;;;;48.88;20.27;;;;;;;6.70;100.00;102023.75;5015106;28;20046;-73
2022/02/10 02:26:59;;;;;;;50.35;20.60;;;;;;;6.72;100.00;102018.44;5018570;28;20486;-73
2022/02/10 02:29:32;;;;;;;54.60;21.48;;;;;;;6.75;100.00;102018.44;5016040;28;20057;-73
2022/02/10 02:32:05;;;;;;;55.97;23.42;;;;;;;6.72;100.00;102021.09;5017539;28;20091;-73
2022/02/10 02:37:46;;;;;;;55.67;20.92;;;;;;;6.78;100.00;102017.59;5016128;28;20057;-73
2022/02/10 03:05:05;;;;;;;60.28;23.10;;;;;;;6.85;100.00;101971.59;5014114;28;20049;-72
2022/02/10 03:07:44;;;;;;;63.38;23.95;;;;;;;6.83;100.00;101973.38;5017386;28;20143;-72
2022/02/10 03:10:31;;;;;;;61.75;21.98;;;;;;;6.83;100.00;101974.25;5017713;28;20048;-73
2022/02/10 03:12:59;;;;;;;61.70;23.90;;;;;;;6.88;100.00;101968.97;5017588;28;20160;-72
2022/02/10 03:15:32;;;;;;;65.32;24.35;;;;;;;6.89;100.00;101974.25;5017210;28;20634;-72
2022/02/10 03:18:20;;;;;;;63.55;23.17;;;;;;;6.86;100.00;101963.66;5018761;28;20648;-73
2022/02/10 03:21:21;;;;;;;52.33;21.48;;;;;;;6.86;100.00;101957.44;5014156;28;20128;-69
2022/02/10 04:08:47;;;;;;;67.95;23.95;;;;;;;6.71;100.00;101964.50;5018655;28;20087;-72
2022/02/10 04:14:07;;;;;;;62.08;23.85;;;;;;;6.72;100.00;101961.00;5015181;28;20120;-73
2022/02/10 04:17:22;;;;;;;68.75;23.45;;;;;;;6.70;100.00;101954.75;5020717;28;20159;-72
2022/02/10 04:20:15;;;;;;;68.97;25.42;;;;;;;6.67;100.00;101959.19;5018466;28;20099;-72
2022/02/10 04:22:55;;;;;;;70.25;23.40;;;;;;;6.67;100.00;101960.06;5018691;28;20149;-71
2022/02/10 04:25:40;;;;;;;73.03;25.10;;;;;;;6.65;100.00;101966.25;5018348;28;20125;-71
2022/02/10 04:28:21;;;;;;;73.65;23.73;;;;;;;6.65;100.00;101958.31;5019761;28;20091;-71
2022/02/10 04:31:18;;;;;;;73.68;25.80;;;;;;;6.70;100.00;101961.84;5017511;28;20053;-72
2022/02/10 04:40:13;;;;;;;67.22;25.55;;;;;;;6.71;100.00;101961.84;5019292;28;20082;-71
2022/02/10 04:54:29;;;;;;;55.30;18.92;;;;;;;6.64;100.00;101944.16;5020929;28;20574;-70
2022/02/10 04:57:35;;;;;;;62.67;20.10;;;;;;;6.63;100.00;101950.34;5018625;28;20212;-70
2022/02/10 05:00:30;;;;;;;60.53;19.67;;;;;;;6.62;100.00;101953.00;5018300;28;20065;-70
2022/02/10 05:12:07;;;;;;;30.65;10.80;;;;;;;6.34;100.00;101945.84;5019996;28;20045;-71
2022/02/10 05:20:20;;;;;;;14.60;5.68;;;;;;;6.23;100.00;101958.19;5015102;28;20084;-72
2022/02/10 05:23:04;;;;;;;7.85;3.72;;;;;;;6.21;100.00;101956.41;5019645;28;20046;-74
2022/02/10 05:32:03;;;;;;;11.10;4.15;;;;;;;6.10;100.00;101964.31;5016666;28;20119;-76
2022/02/10 05:34:36;;;;;;;8.43;4.07;;;;;;;6.11;100.00;101964.34;5013271;28;20053;-77
2022/02/10 05:37:05;;;;;;;11.68;4.68;;;;;;;6.06;100.00;101957.22;5015555;28;20045;-77
2022/02/10 05:39:39;;;;;;;9.38;3.90;;;;;;;6.05;100.00;101961.66;5019353;28;20132;-69
2022/02/10 05:45:09;;;;;;;10.35;4.63;;;;;;;6.09;100.00;101958.13;5015624;28;20068;-70
2022/02/10 05:51:11;;;;;;;10.23;4.28;;;;;;;6.04;100.00;101958.97;5017747;28;20295;-71
2022/02/10 05:53:59;;;;;;;10.95;5.72;;;;;;;6.02;100.00;101974.88;5015310;28;21394;-77
2022/02/10 05:56:37;;;;;;;;;;;;;;;5.96;100.00;101977.50;5017094;28;20140;-77
2022/02/10 05:59:28;;;;;;;10.57;4.60;;;;;;;5.93;100.00;101975.69;5018481;28;19929;-77
2022/02/10 06:48:05;;;;;;;9.45;3.47;;;;;;;5.46;100.00;102005.38;5014108;28;20134;-72
2022/02/10 06:53:29;;;;;;;6.63;3.28;;;;;;;5.41;100.00;102015.06;4998414;28;20049;-72
2022/02/10 07:05:00;;;;;;;11.77;3.42;;;;;;;5.42;100.00;102035.38;5019457;28;20128;-71
2022/02/10 07:10:48;;;;;;;6.03;2.70;;;;;;;5.43;100.00;102029.19;5018981;28;20053;-71
2022/02/10 07:14:06;;;;;;;12.50;3.50;;;;;;;5.40;100.00;102030.06;5018685;28;20075;-72
2022/02/10 07:51:47;;;;;;;6.28;3.08;;;;;;;5.57;100.00;102047.84;5019908;28;20191;-70
2022/02/10 07:54:26;;;;;;;9.75;3.83;;;;;;;5.57;100.00;102051.38;5018714;28;20501;-70
2022/02/10 08:00:23;;;;;;;11.90;4.57;;;;;;;5.59;100.00;102064.63;5021068;28;20265;-70
2022/02/10 08:56:14;;;;;;;11.88;3.83;;;;;;;6.39;100.00;102118.19;4993378;28;19929;-70
2022/02/10 09:02:10;;;;;;;9.93;3.60;;;;;;;6.51;100.00;102112.09;4964550;28;20071;-70
2022/02/10 09:04:50;;;;;;;10.88;4.22;;;;;;;6.50;100.00;102111.22;5018085;28;20108;-70
2022/02/10 09:07:51;;;;;;;10.30;3.78;;;;;;;6.50;100.00;102120.91;5020961;28;20054;-70
2022/02/10 09:18:57;;;;;;;13.55;4.90;;;;;;;6.71;100.00;102128.09;5015265;28;20136;-75
2022/02/10 09:22:05;;;;;;;20.73;5.15;;;;;;;6.81;100.00;102132.56;5013355;28;20081;-75
2022/02/10 09:56:11;;;;;;;10.27;3.05;;;;;;;7.33;100.00;102144.22;5052146;28;20067;-73
2022/02/10 09:58:56;;;;;;;12.68;4.50;;;;;;;7.28;100.00;102145.06;5054683;28;20051;-74
2022/02/10 10:01:30;;;;;;;16.80;4.25;;;;;;;7.23;100.00;102153.94;5051590;28;20132;-73
2022/02/10 10:04:03;;;;;;;;;;;;;;;7.42;100.00;102149.53;5051906;28;20068;-74
2022/02/10 10:06:53;;;;;;;17.35;3.92;;;;;;;7.31;100.00;102152.19;5053004;28;19935;-74
2022/02/10 10:09:45;;;;;;;8.48;3.58;;;;;;;7.22;100.00;102161.00;5054777;28;20146;-74
2022/02/10 10:15:21;;;;;;;10.48;3.42;;;;;;;7.13;100.00;102170.72;5053191;28;20045;-74
2022/02/10 10:21:14;;;;;;;8.82;4.28;;;;;;;7.07;100.00;102176.88;5045464;28;20131;-74
2022/02/10 10:52:08;;;;;;;13.40;4.28;;;;;;;7.66;100.00;102164.63;5024286;28;20589;-76
2022/02/10 10:54:43;;;;;;;10.68;3.65;;;;;;;7.59;100.00;102171.69;5040015;28;20049;-77
2022/02/10 10:57:16;;;;;;;10.23;3.53;;;;;;;7.37;100.00;102177.84;5039747;28;20076;-78
2022/02/10 11:00:54;;;;;;;9.95;3.40;;;;;;;7.47;100.00;102185.88;5037791;28;20055;-78
2022/02/10 11:03:50;;;;;;;9.48;2.85;;;;;;;7.66;100.00;102183.22;5037789;28;20080;-79
2022/02/10 11:46:45;;;;;;;8.82;3.10;;;;;;;7.53;100.00;102176.13;5036756;28;20057;-79
2022/02/10 14:12:56;;;;;;;8.52;2.40;;;;;;;7.35;100.00;102158.38;5035963;28;21329;-73
2022/02/10 14:15:49;;;;;;;8.02;2.90;;;;;;;7.21;100.00;102153.03;5038871;28;20076;-72
2022/02/10 14:18:25;;;;;;;7.57;2.42;;;;;;;7.32;100.00;102159.28;5040910;28;20275;-73
2022/02/10 14:21:14;;;;;;;9.73;2.65;;;;;;;7.38;100.00;102163.72;5040301;28;20052;-78
2022/02/10 14:29:21;;;;;;;6.60;2.67;;;;;;;7.19;99.83;102163.66;5024844;28;20052;-78
2022/02/10 14:31:53;;;;;;;11.38;2.97;;;;;;;7.25;100.00;102174.31;5040056;28;20076;-78
2022/02/10 14:34:26;;;;;;;9.60;2.92;;;;;;;7.33;100.00;102170.78;5038052;28;20081;-72
2022/02/10 14:37:13;;;;;;;7.55;2.05;;;;;;;7.39;100.00;102177.00;5039177;28;20060;-72
2022/02/10 15:11:08;;;;;;;8.43;2.97;;;;;;;6.88;100.00;102187.44;4998027;28;20046;-73
2022/02/10 15:16:51;;;;;;;8.90;2.85;;;;;;;6.82;100.00;102186.50;5001942;28;20052;-72
2022/02/10 15:45:50;;;;;;;11.80;3.08;;;;;;;6.31;100.00;102186.19;5039156;28;19928;-76
2022/02/10 15:56:53;;;;;;;8.50;3.13;;;;;;;6.14;100.00;102192.25;5036858;28;20052;-72
2022/02/10 16:14:22;;;;;;;7.95;2.90;;;;;;;6.03;100.00;102169.19;5040583;28;20040;-76
2022/02/10 16:19:05;;;;;;;9.27;2.45;;;;;;;5.97;100.00;102160.31;5039628;28;20565;-76
2022/02/10 16:21:42;;;;;;;8.55;2.55;;;;;;;5.94;100.00;102167.31;5034780;28;20045;-76
2022/02/10 16:24:19;;;;;;;8.68;2.75;;;;;;;5.93;100.00;102160.25;5036270;28;20168;-78
2022/02/10 16:26:55;;;;;;;10.63;2.97;;;;;;;5.88;100.00;102168.16;5035376;28;20048;-76
2022/02/10 16:29:27;;;;;;;9.88;2.60;;;;;;;5.82;100.00;102172.53;5038115;28;20560;-78
2022/02/10 16:31:55;;;;;;;6.45;2.03;;;;;;;5.75;100.00;102168.94;5039265;28;20501;-76
2022/02/10 16:34:29;;;;;;;9.73;2.40;;;;;;;5.69;100.00;102175.06;5039611;28;20264;-76
2022/02/10 16:36:59;;;;;;;9.95;2.25;;;;;;;5.72;100.00;102174.19;5037876;28;20069;-77
2022/02/10 16:39:32;;;;;;;7.45;2.33;;;;;;;5.68;100.00;102170.63;5039215;28;20049;-76
2022/02/10 16:42:07;;;;;;;8.50;2.75;;;;;;;5.60;100.00;102167.00;5037051;28;20124;-72
2022/02/10 16:44:38;;;;;;;10.25;2.67;;;;;;;5.58;100.00;102161.72;5035231;28;20108;-77
2022/02/10 16:47:13;;;;;;;6.40;3.08;;;;;;;5.63;100.00;102161.75;5037083;28;20987;-76
2022/02/10 16:49:46;;;;;;;14.02;2.45;;;;;;;5.54;100.00;102165.19;5035692;28;20180;-77
2022/02/10 16:52:23;;;;;;;10.65;2.70;;;;;;;5.49;100.00;102166.03;5036351;28;20137;-78
2022/02/10 16:55:08;;;;;;;11.90;3.13;;;;;;;5.46;100.00;102169.53;5038760;28;20141;-78
2022/02/10 16:57:42;;;;;;;9.77;2.53;;;;;;;5.50;100.00;102181.94;5037075;28;20056;-75
2022/02/10 17:00:33;;;;;;;3.42;2.10;;;;;;;5.48;100.00;102181.00;5035771;28;20045;-76
2022/02/10 17:03:17;;;;;;;7.22;2.70;;;;;;;5.40;100.00;102175.66;5036191;28;20048;-74
2022/02/10 17:06:03;;;;;;;9.90;2.60;;;;;;;5.39;100.00;102179.16;5037877;28;20075;-72
2022/02/10 17:14:22;;;;;;;7.25;2.17;;;;;;;5.23;100.00;102188.69;5034446;28;20246;-73
2022/02/10 17:20:01;;;;;;;5.03;2.45;;;;;;;5.22;100.00;102188.69;5036771;28;20080;-72
2022/02/10 17:25:23;;;;;;;13.95;3.83;;;;;;;5.15;100.00;102187.72;5035341;28;20449;-72
2022/02/10 17:27:58;;;;;;;10.80;3.22;;;;;;;5.17;100.00;102196.56;5036289;28;20049;-72
2022/02/10 17:31:00;;;;;;;8.73;3.03;;;;;;;5.04;100.00;102190.25;5035081;28;20488;-76
2022/02/10 17:33:51;;;;;;;12.15;3.22;;;;;;;5.09;100.00;102195.59;5040455;28;20044;-73
2022/02/10 17:36:30;;;;;;;9.15;2.72;;;;;;;5.04;100.00;102194.66;5035174;28;20053;-72
2022/02/10 17:42:18;;;;;;;9.48;2.83;;;;;;;4.99;100.00;102199.88;5036444;28;20107;-75
2022/02/10 17:45:06;;;;;;;11.23;2.92;;;;;;;4.99;100.00;102206.94;5036426;28;20064;-76
2022/02/10 17:53:14;;;;;;;8.55;2.88;;;;;;;4.87;100.00;102218.25;5040949;28;20159;-76
2022/02/10 17:55:42;;;;;;;7.18;2.97;;;;;;;4.90;100.00;102214.75;5041751;28;20097;-76
2022/02/10 17:58:11;;;;;;;9.77;2.92;;;;;;;4.86;100.00;102211.16;5038625;28;20092;-73
2022/02/10 18:00:44;;;;;;;9.07;2.83;;;;;;;4.88;100.00;102214.72;5039589;28;20658;-72
2022/02/10 18:03:12;;;;;;;10.45;2.70;;;;;;;4.85;100.00;102217.31;5040559;28;20727;-76
2022/02/10 18:06:09;;;;;;;14.98;3.30;;;;;;;4.88;100.00;102216.47;5039837;28;20096;-75
2022/02/10 18:08:45;;;;;;;11.35;2.83;;;;;;;4.89;100.00;102213.84;5040774;28;20131;-76
2022/02/10 18:14:24;;;;;;;9.48;2.97;;;;;;;4.86;100.00;102212.03;5019724;28;20534;-72
2022/02/10 18:17:17;;;;;;;6.95;2.38;;;;;;;4.84;100.00;102219.06;5040195;28;20346;-72
2022/02/10 18:19:49;;;;;;;12.05;3.13;;;;;;;4.83;100.00;102209.34;5040806;28;20076;-72
2022/02/10 18:25:25;;;;;;;8.00;2.60;;;;;;;4.88;100.00;102208.53;5040673;28;20052;-76
2022/02/10 18:33:25;;;;;;;6.05;2.60;;;;;;;4.85;100.00;102215.56;5008831;28;20049;-72
2022/02/10 18:33:46;;;;;;;12.13;3.35;;;;;;;4.87;100.00;102210.31;5039658;28;20231;-73
2022/02/10 19:07:20;;;;;;;11.90;3.65;;;;;;;4.91;100.00;102221.81;4909789;28;20062;-73
2022/02/10 19:09:54;;;;;;;7.25;2.58;;;;;;;4.90;100.00;102226.19;4957150;28;20114;-73
2022/02/10 19:12:27;;;;;;;10.75;3.22;;;;;;;4.83;100.00;102232.28;4941391;28;20046;-72
2022/02/10 19:15:10;;;;;;;9.52;3.22;;;;;;;4.79;100.00;102228.72;4956052;28;20082;-73
2022/02/10 19:17:41;;;;;;;9.40;3.90;;;;;;;4.79;100.00;102218.13;5037858;28;20123;-73
2022/02/10 19:20:10;;;;;;;9.88;3.38;;;;;;;4.78;100.00;102223.38;5037476;28;20090;-73
2022/02/10 19:22:40;;;;;;;7.82;3.05;;;;;;;4.84;100.00;102223.50;5039285;28;20169;-76
2022/02/10 19:25:09;;;;;;;7.90;2.78;;;;;;;4.86;100.00;102224.41;5039343;28;20473;-76
2022/02/10 19:27:43;;;;;;;9.73;2.70;;;;;;;4.81;100.00;102221.69;5038199;28;20096;-76
2022/02/10 19:30:13;;;;;;;8.70;3.45;;;;;;;4.81;100.00;102232.25;5037733;28;20139;-77
2022/02/10 19:32:47;;;;;;;7.55;2.97;;;;;;;4.80;100.00;102224.28;5039556;28;20045;-76
2022/02/10 19:35:17;;;;;;;8.18;2.80;;;;;;;4.77;100.00;102219.00;5037406;28;20111;-76
2022/02/10 19:37:47;;;;;;;9.32;3.20;;;;;;;4.77;100.00;102221.63;5035036;28;20059;-76
2022/02/10 19:40:15;;;;;;;9.45;3.08;;;;;;;4.74;100.00;102226.88;5038319;28;20057;-75
2022/02/10 19:42:46;;;;;;;9.52;2.67;;;;;;;4.76;100.00;102226.00;5038900;28;20084;-76
2022/02/10 19:45:15;;;;;;;11.40;2.92;;;;;;;4.80;100.00;102227.84;5038936;28;20055;-77
2022/02/10 19:47:44;;;;;;;7.18;2.55;;;;;;;4.77;100.00;102233.09;5039359;28;20045;-77
2022/02/10 19:50:16;;;;;;;10.73;3.72;;;;;;;4.79;100.00;102234.00;5037385;28;20091;-77
2022/02/10 19:52:48;;;;;;;9.30;2.95;;;;;;;4.70;100.00;102230.31;5037039;28;20495;-77
2022/02/10 19:55:20;;;;;;;7.78;2.70;;;;;;;4.68;100.00;102227.66;5038348;28;20683;-77
2022/02/10 19:57:55;;;;;;;10.88;3.63;;;;;;;4.66;100.00;102221.47;5036897;28;20041;-74
2022/02/10 20:00:31;;;;;;;8.65;3.05;;;;;;;4.57;100.00;102216.06;5036651;28;20052;-73
2022/02/10 20:03:06;;;;;;;10.18;2.88;;;;;;;4.56;100.00;102225.72;5036642;28;20145;-74
2022/02/10 20:05:37;;;;;;;9.93;2.97;;;;;;;4.61;100.00;102226.66;5036173;28;20045;-73
2022/02/10 20:08:05;;;;;;;10.48;4.40;;;;;;;4.58;100.00;102231.03;5038276;28;20037;-77
2022/02/10 20:10:33;;;;;;;8.60;3.03;;;;;;;4.65;100.00;102233.81;5035889;28;20327;-76
2022/02/10 20:13:16;;;;;;;8.38;2.88;;;;;;;4.68;100.00;102228.56;5037067;28;20083;-74
2022/02/10 20:15:46;;;;;;;6.90;2.28;;;;;;;4.74;100.00;102232.16;5036663;28;20045;-76
2022/02/10 20:18:15;;;;;;;8.40;3.22;;;;;;;4.73;100.00;102236.53;5039053;28;20502;-76
2022/02/10 20:20:43;;;;;;;5.47;2.50;;;;;;;4.73;100.00;102230.38;5035516;28;20041;-75
2022/02/10 20:23:11;;;;;;;7.88;2.78;;;;;;;4.69;100.00;102232.09;5038657;28;20057;-77
2022/02/10 20:26:00;;;;;;;8.05;2.95;;;;;;;4.68;100.00;102222.38;5036796;28;20044;-76
2022/02/10 20:28:32;;;;;;;15.38;3.08;;;;;;;4.62;100.00;102233.75;5040260;28;20047;-76
2022/02/10 20:31:01;;;;;;;10.82;2.65;;;;;;;4.70;100.00;102235.59;5037786;28;20052;-76
2022/02/10 20:33:31;;;;;;;7.50;2.70;;;;;;;4.70;100.00;102236.53;5039417;28;20481;-77
2022/02/10 20:36:02;;;;;;;5.65;2.42;;;;;;;4.72;100.00;102236.53;5038163;28;20139;-76
2022/02/10 20:38:31;;;;;;;4.78;2.40;;;;;;;4.64;100.00;102239.06;5036736;28;20247;-76
2022/02/10 20:41:03;;;;;;;8.30;2.22;;;;;;;4.66;100.00;102242.63;5037113;28;20259;-76
2022/02/10 20:43:33;;;;;;;8.00;2.40;;;;;;;4.62;100.00;102254.03;5038129;28;20065;-75
2022/02/10 20:46:09;;;;;;;10.10;2.88;;;;;;;4.57;100.00;102246.00;5038244;28;20191;-73
2022/02/10 20:48:42;;;;;;;13.95;2.78;;;;;;;4.53;100.00;102238.00;5038214;28;20056;-73
2022/02/10 20:51:25;;;;;;;9.68;4.30;;;;;;;4.63;100.00;102251.41;5030960;28;20045;-73
2022/02/10 20:53:55;;;;;;;10.23;2.73;;;;;;;4.58;100.00;102239.88;5036954;28;20045;-73
2022/02/10 20:56:25;;;;;;;10.27;2.92;;;;;;;4.53;100.00;102238.00;5038963;28;20192;-73
2022/02/10 20:59:09;;;;;;;11.95;5.10;;;;;;;4.54;100.00;102238.03;5035941;28;20053;-73
2022/02/10 21:01:42;;;;;;;9.93;2.17;;;;;;;4.48;100.00;102232.66;5035535;28;20052;-73
2022/02/10 21:04:13;;;;;;;6.70;2.53;;;;;;;4.52;100.00;102242.41;5036011;28;20144;-73
2022/02/10 21:06:55;;;;;;;7.88;2.58;;;;;;;4.44;100.00;102242.31;5035389;28;20052;-73
2022/02/10 21:09:37;;;;;;;9.90;2.38;;;;;;;4.46;100.00;102245.84;5034418;28;20144;-73
2022/02/10 21:12:10;;;;;;;9.07;2.95;;;;;;;4.37;100.00;102227.19;5020183;28;20049;-74
2022/02/10 21:14:44;;;;;;;9.15;2.00;;;;;;;4.38;100.00;102226.34;5037694;28;20064;-73
2022/02/10 21:17:22;;;;;;;5.85;2.05;;;;;;;4.37;100.00;102228.97;5036496;28;20053;-74
2022/02/10 21:20:00;;;;;;;8.10;2.38;;;;;;;4.37;100.00;102236.88;5024127;28;20040;-72
2022/02/10 21:22:38;;;;;;;10.93;2.92;;;;;;;4.27;100.00;102226.19;5032694;28;20575;-73
2022/02/10 21:25:12;;;;;;;6.25;2.63;;;;;;;4.27;100.00;102231.47;5032777;28;20133;-76
2022/02/10 21:27:44;;;;;;;9.77;2.42;;;;;;;4.21;100.00;102220.78;5035563;28;20503;-76
2022/02/10 21:30:17;;;;;;;7.40;2.50;;;;;;;4.16;100.00;102227.75;5036744;28;20053;-73
2022/02/10 21:32:57;;;;;;;10.63;2.85;;;;;;;4.11;100.00;102224.16;5035304;28;20063;-75
2022/02/10 21:35:33;;;;;;;7.57;2.47;;;;;;;4.11;100.00;102225.03;5038599;28;20056;-73
2022/02/10 21:38:14;;;;;;;11.10;3.03;;;;;;;4.09;100.00;102217.94;5034190;28;20056;-73
2022/02/10 21:55:35;;;;;;;8.90;2.88;;;;;;;3.95;100.00;102216.81;5006255;28;20045;-75
2022/02/10 22:06:52;;;;;;;7.10;2.65;;;;;;;3.87;100.00;102227.25;5034036;28;20663;-73
2022/02/10 22:09:30;;;;;;;7.95;2.50;;;;;;;3.90;100.00;102230.84;5035496;28;20045;-76
2022/02/10 22:20:19;;;;;;;5.82;1.80;;;;;;;3.95;100.00;102233.56;5031601;28;20053;-76
2022/02/10 22:23:02;;;;;;;7.80;2.35;;;;;;;3.91;100.00;102234.34;5038559;28;20048;-76
2022/02/10 22:25:31;;;;;;;8.07;2.90;;;;;;;3.95;100.00;102238.84;5034199;28;20059;-76
2022/02/10 22:28:09;;;;;;;8.82;2.92;;;;;;;4.00;100.00;102245.09;5036342;28;20056;-76
2022/02/10 22:30:47;;;;;;;11.57;2.90;;;;;;;3.98;100.00;102243.28;5034544;28;20046;-76
2022/02/10 22:33:26;;;;;;;10.75;2.65;;;;;;;4.01;100.00;102244.22;5034874;28;20049;-75
2022/02/10 22:36:09;;;;;;;10.25;2.25;;;;;;;3.95;100.00;102240.56;5039337;28;20058;-73
2022/02/10 22:38:38;;;;;;;8.38;2.30;;;;;;;4.02;100.00;102227.53;5043543;28;20641;-73
2022/02/10 22:41:15;;;;;;;8.68;2.22;;;;;;;4.03;100.00;102241.59;5038352;28;20053;-73
2022/02/10 22:43:50;;;;;;;9.60;1.90;;;;;;;4.27;100.00;102238.47;5073196;28;20057;-73
2022/02/10 22:46:27;;;;;;;9.35;2.72;;;;;;;4.08;100.00;102232.88;5037114;28;20072;-73
2022/02/10 22:49:02;;;;;;;10.23;2.60;;;;;;;4.03;100.00;102234.56;5041867;28;20052;-74
2022/02/10 22:51:39;;;;;;;9.63;2.38;;;;;;;3.95;100.00;102233.56;5039508;28;20170;-74
2022/02/10 22:54:13;;;;;;;9.30;2.55;;;;;;;3.98;100.00;102236.25;5039762;28;20076;-75
2022/02/10 22:56:45;;;;;;;10.40;2.42;;;;;;;3.99;100.00;102238.03;5038846;28;20060;-72
2022/02/10 22:59:19;;;;;;;6.07;2.42;;;;;;;3.95;100.00;102232.66;5036920;28;20535;-73
2022/02/10 23:01:49;;;;;;;8.93;1.95;;;;;;;4.00;100.00;102238.91;5039124;28;20045;-73
2022/02/10 23:04:18;;;;;;;9.23;2.08;;;;;;;4.07;100.00;102254.91;5035537;28;20401;-73
2022/02/10 23:06:52;;;;;;;10.35;2.60;;;;;;;4.00;100.00;102258.31;5035921;28;20546;-73
2022/02/10 23:09:29;;;;;;;8.85;2.90;;;;;;;3.97;100.00;102255.59;5039207;28;20052;-73
2022/02/10 23:12:04;;;;;;;14.45;2.75;;;;;;;3.98;100.00;102260.00;5038963;28;20048;-73
2022/02/10 23:14:34;;;;;;;13.63;3.00;;;;;;;4.01;100.00;102246.84;5038538;28;20052;-73
2022/02/10 23:17:03;;;;;;;10.35;2.20;;;;;;;4.07;100.00;102246.97;5036387;28;20559;-73
2022/02/10 23:19:38;;;;;;;16.25;2.92;;;;;;;4.14;100.00;102244.41;5038871;28;20052;-73
2022/02/10 23:22:18;;;;;;;6.10;2.63;;;;;;;4.13;100.00;102240.03;5040528;28;20056;-73
2022/02/10 23:24:48;;;;;;;14.35;2.90;;;;;;;4.10;100.00;102251.41;5039362;28;20053;-73
2022/02/10 23:27:18;;;;;;;7.78;1.95;;;;;;;4.20;100.00;102250.69;5038292;28;20045;-72
2022/02/10 23:29:58;;;;;;;8.77;3.08;;;;;;;4.15;100.00;102246.22;5035482;28;20131;-72
2022/02/10 23:32:30;;;;;;;15.02;2.55;;;;;;;4.07;100.00;102252.25;5039925;28;20064;-72
2022/02/10 23:35:03;;;;;;;11.88;3.13;;;;;;;4.14;100.00;102249.72;5039285;28;20485;-72
2022/02/10 23:37:32;;;;;;;12.07;2.20;;;;;;;4.18;100.00;102254.19;5038810;28;20099;-77
2022/02/10 23:40:00;;;;;;;8.60;2.90;;;;;;;4.18;100.00;102254.19;5039054;28;20301;-76
2022/02/10 23:42:32;;;;;;;11.45;2.95;;;;;;;4.21;100.00;102254.25;5039200;28;20385;-73
2022/02/10 23:45:13;;;;;;;17.70;2.97;;;;;;;4.25;100.00;102259.59;5036785;28;20051;-73
2022/02/10 23:47:46;;;;;;;10.57;2.42;;;;;;;4.30;100.00;102257.03;5041745;28;20057;-74
2022/02/10 23:50:20;;;;;;;12.05;2.90;;;;;;;4.38;100.00;102263.34;5037270;28;20053;-73
2022/02/10 23:52:56;;;;;;;7.45;2.40;;;;;;;4.39;100.00;102256.28;5036078;28;20069;-73
2022/02/10 23:55:38;;;;;;;7.38;2.58;;;;;;;4.48;100.00;102256.47;5038530;28;20048;-73
2022/02/10 23:58:21;;;;;;;5.85;2.60;;;;;;;4.59;100.00;102262.78;5036437;28;20110;-73
